createdAt,value
2017-07-26T00:01:22.231Z,80.60
2017-07-26T00:03:57.848Z,80.00
2017-07-26T00:06:32.815Z,79.90
2017-07-26T00:09:07.723Z,80.30
2017-07-26T00:11:42.682Z,80.90
2017-07-26T00:14:17.659Z,81.60
2017-07-26T00:16:52.548Z,81.90
2017-07-26T00:19:27.538Z,81.60
2017-07-26T00:22:02.359Z,81.00
2017-07-26T00:24:38.112Z,81.50
2017-07-26T00:27:12.985Z,81.60
2017-07-26T00:29:47.852Z,82.00
2017-07-26T00:32:22.936Z,81.80
2017-07-26T00:34:57.856Z,81.70
2017-07-26T00:37:32.675Z,81.90
2017-07-26T00:40:07.701Z,82.40
2017-07-26T00:42:42.600Z,82.50
2017-07-26T00:45:17.572Z,82.50
2017-07-26T00:47:52.377Z,81.60
2017-07-26T00:50:34.552Z,82.00
2017-07-26T00:53:09.508Z,82.60
2017-07-26T00:55:44.512Z,83.20
2017-07-26T00:58:19.377Z,83.00
2017-07-26T01:00:54.300Z,83.70
2017-07-26T01:03:29.259Z,83.60
2017-07-26T01:06:04.232Z,83.80
2017-07-26T01:08:39.185Z,84.20
2017-07-26T01:11:14.116Z,84.80
2017-07-26T01:13:49.124Z,84.60
2017-07-26T01:16:24.316Z,85.00
2017-07-26T01:19:00.149Z,84.50
2017-07-26T01:33:57.009Z,85.20
2017-07-26T01:36:32.412Z,85.00
2017-07-26T01:39:07.417Z,84.40
2017-07-26T01:41:42.361Z,84.10
2017-07-26T01:44:17.373Z,84.10
2017-07-26T01:46:52.333Z,83.60
2017-07-26T01:49:27.373Z,83.60
2017-07-26T01:52:02.308Z,83.90
2017-07-26T01:54:37.399Z,83.80
2017-07-26T01:57:12.220Z,83.80
2017-07-26T01:59:47.112Z,84.40
2017-07-26T02:02:22.738Z,84.80
2017-07-26T02:04:57.778Z,84.80
2017-07-26T02:07:32.864Z,84.50
2017-07-26T02:10:08.570Z,84.90
2017-07-26T02:12:44.411Z,83.80
2017-07-26T02:15:19.190Z,83.80
2017-07-26T02:17:54.215Z,83.50
2017-07-26T02:20:29.280Z,84.20
2017-07-26T02:23:04.331Z,83.50
2017-07-26T02:25:39.116Z,83.50
2017-07-26T02:28:14.407Z,84.10
2017-07-26T02:30:50.167Z,84.90
2017-07-26T02:33:25.890Z,84.30
2017-07-26T02:36:00.800Z,84.30
2017-07-26T02:38:35.826Z,84.50
2017-07-26T02:41:11.006Z,84.40
2017-07-26T02:43:45.958Z,84.30
2017-07-26T02:46:21.956Z,84.10
2017-07-26T02:48:56.866Z,84.50
2017-07-26T02:51:31.877Z,84.60
2017-07-26T02:54:06.803Z,84.70
2017-07-26T02:56:42.683Z,84.60
2017-07-26T02:59:17.621Z,84.60
2017-07-26T03:01:52.603Z,84.70
2017-07-26T03:04:27.596Z,84.60
2017-07-26T03:07:02.601Z,84.30
2017-07-26T03:09:37.608Z,84.80
2017-07-26T03:12:12.647Z,84.50
2017-07-26T03:14:47.597Z,84.90
2017-07-26T03:17:22.663Z,85.00
2017-07-26T03:19:57.685Z,84.80
2017-07-26T03:22:32.665Z,84.70
2017-07-26T03:25:08.383Z,84.10
2017-07-26T03:27:43.668Z,84.10
2017-07-26T03:30:19.526Z,85.00
2017-07-26T03:32:54.501Z,84.90
2017-07-26T03:35:29.456Z,84.40
2017-07-26T03:38:04.436Z,84.90
2017-07-26T03:40:40.231Z,86.50
2017-07-26T03:43:15.146Z,85.70
2017-07-26T03:45:50.277Z,85.80
2017-07-26T03:48:25.136Z,85.90
2017-07-26T03:51:00.186Z,85.60
2017-07-26T03:53:35.102Z,85.60
2017-07-26T03:56:10.000Z,85.30
2017-07-26T03:58:44.938Z,85.30
2017-07-26T04:01:19.895Z,85.60
2017-07-26T04:03:54.917Z,85.60
2017-07-26T04:06:29.982Z,85.30
2017-07-26T04:09:04.881Z,84.20
2017-07-26T04:11:40.864Z,84.90
2017-07-26T04:14:16.112Z,85.20
2017-07-26T04:16:51.103Z,85.30
2017-07-26T04:19:26.329Z,84.70
2017-07-26T04:22:01.657Z,85.30
2017-07-26T04:24:38.101Z,84.80
2017-07-26T04:27:13.173Z,83.60
2017-07-26T04:29:48.469Z,84.00
2017-07-26T04:32:23.657Z,83.40
2017-07-26T04:34:58.759Z,84.10
2017-07-26T04:37:37.753Z,84.40
2017-07-26T04:40:12.844Z,85.20
2017-07-26T04:42:47.800Z,85.00
2017-07-26T04:45:22.776Z,85.30
2017-07-26T04:47:57.984Z,84.70
2017-07-26T04:50:32.960Z,84.80
2017-07-26T04:53:07.952Z,85.30
2017-07-26T04:55:42.940Z,85.10
2017-07-26T04:58:18.306Z,84.40
2017-07-26T05:00:58.647Z,83.60
2017-07-26T05:03:34.586Z,84.00
2017-07-26T05:06:09.649Z,83.30
2017-07-26T05:08:44.946Z,83.50
2017-07-26T05:11:20.178Z,83.60
2017-07-26T05:13:55.088Z,83.20
2017-07-26T05:16:30.147Z,83.70
2017-07-26T05:19:05.085Z,84.00
2017-07-26T05:21:40.004Z,83.70
2017-07-26T05:24:14.972Z,82.80
2017-07-26T05:26:49.957Z,82.80
2017-07-26T05:29:24.770Z,83.00
2017-07-26T05:31:59.838Z,83.80
2017-07-26T05:34:36.885Z,83.80
2017-07-26T05:37:11.798Z,84.20
2017-07-26T05:39:46.835Z,84.30
2017-07-26T05:42:21.764Z,84.40
2017-07-26T05:45:14.953Z,83.70
2017-07-26T05:47:51.977Z,83.50
2017-07-26T05:50:27.954Z,83.20
2017-07-26T05:53:03.012Z,83.00
2017-07-26T05:55:48.270Z,82.80
2017-07-26T05:58:24.097Z,82.10
2017-07-26T06:00:59.152Z,82.10
2017-07-26T06:03:33.960Z,82.40
2017-07-26T06:06:08.929Z,82.30
2017-07-26T06:08:43.799Z,82.40
2017-07-26T06:11:18.740Z,82.50
2017-07-26T06:13:53.703Z,82.40
2017-07-26T06:16:32.421Z,83.20
2017-07-26T06:19:07.367Z,82.30
2017-07-26T06:21:42.204Z,82.00
2017-07-26T06:24:17.275Z,81.60
2017-07-26T06:26:52.236Z,81.80
2017-07-26T06:29:27.330Z,81.00
2017-07-26T06:32:02.320Z,81.90
2017-07-26T06:34:37.311Z,82.00
2017-07-26T06:37:12.355Z,82.50
2017-07-26T06:39:47.189Z,82.70
2017-07-26T06:42:22.176Z,82.50
2017-07-26T06:44:57.163Z,81.60
2017-07-26T06:47:32.008Z,81.70
2017-07-26T06:50:07.708Z,81.20
2017-07-26T06:52:42.773Z,81.20
2017-07-26T06:55:17.556Z,81.30
2017-07-26T06:57:52.532Z,80.10
2017-07-26T07:00:27.525Z,81.80
2017-07-26T07:03:02.519Z,81.10
2017-07-26T07:05:37.540Z,80.70
2017-07-26T07:08:12.414Z,81.50
2017-07-26T07:10:47.247Z,81.80
2017-07-26T07:13:22.087Z,82.70
2017-07-26T07:15:57.067Z,82.30
2017-07-26T07:18:31.896Z,82.20
2017-07-26T07:21:06.804Z,82.70
2017-07-26T07:23:41.796Z,82.20
2017-07-26T07:26:16.837Z,81.80
2017-07-26T07:28:51.746Z,81.90
2017-07-26T07:31:26.720Z,82.00
2017-07-26T07:34:02.442Z,81.10
2017-07-26T07:36:37.308Z,81.10
2017-07-26T07:39:12.391Z,81.40
2017-07-26T07:41:47.332Z,82.10
2017-07-26T07:44:22.357Z,81.80
2017-07-26T07:46:57.175Z,81.20
2017-07-26T07:49:32.940Z,81.70
2017-07-26T07:52:07.758Z,80.90
2017-07-26T07:54:43.501Z,80.40
2017-07-26T07:57:18.492Z,80.30
2017-07-26T07:59:53.487Z,80.10
2017-07-26T08:02:28.315Z,81.60
2017-07-26T08:05:03.197Z,81.40
2017-07-26T08:07:38.072Z,80.80
2017-07-26T08:10:12.972Z,80.70
2017-07-26T08:12:47.805Z,80.00
2017-07-26T08:15:22.786Z,80.00
2017-07-26T08:17:57.712Z,79.20
2017-07-26T08:20:32.635Z,80.10
2017-07-26T08:23:07.667Z,80.10
2017-07-26T08:25:42.581Z,78.90
2017-07-26T08:28:17.365Z,78.60
2017-07-26T08:30:52.378Z,80.00
2017-07-26T08:33:27.192Z,80.00
2017-07-26T08:36:02.954Z,80.10
2017-07-26T08:38:37.926Z,80.20
2017-07-26T08:41:12.723Z,80.30
2017-07-26T08:43:47.673Z,80.80
2017-07-26T08:46:22.676Z,80.70
2017-07-26T08:48:58.394Z,80.50
2017-07-26T08:51:34.057Z,80.10
2017-07-26T08:54:09.072Z,80.10
2017-07-26T08:56:44.864Z,81.10
2017-07-26T08:59:19.776Z,81.10
2017-07-26T09:01:55.016Z,81.70
2017-07-26T09:04:29.941Z,82.30
2017-07-26T09:07:04.975Z,83.00
2017-07-26T09:09:40.744Z,81.60
2017-07-26T09:12:16.355Z,82.60
2017-07-26T09:14:51.388Z,82.60
2017-07-26T09:17:26.255Z,82.70
2017-07-26T09:20:01.123Z,83.10
2017-07-26T09:22:36.019Z,81.30
2017-07-26T09:25:10.844Z,80.90
2017-07-26T09:27:45.696Z,80.50
2017-07-26T09:30:20.574Z,80.30
2017-07-26T09:32:55.541Z,81.10
2017-07-26T09:35:30.361Z,81.10
2017-07-26T09:38:05.409Z,80.80
2017-07-26T09:40:40.314Z,80.00
2017-07-26T09:43:15.308Z,80.50
2017-07-26T09:45:50.266Z,80.20
2017-07-26T09:48:25.204Z,79.80
2017-07-26T09:51:01.028Z,79.40
2017-07-26T09:53:35.961Z,79.30
2017-07-26T09:56:10.824Z,79.80
2017-07-26T09:58:45.723Z,81.10
2017-07-26T10:01:20.738Z,80.90
2017-07-26T10:03:55.653Z,80.90
2017-07-26T10:06:30.582Z,80.70
2017-07-26T10:09:05.466Z,81.20
2017-07-26T10:11:40.414Z,81.00
2017-07-26T10:14:16.970Z,80.80
2017-07-26T10:16:53.598Z,80.20
2017-07-26T10:19:29.260Z,80.90
2017-07-26T10:22:04.666Z,80.70
2017-07-26T10:24:39.575Z,79.40
2017-07-26T10:27:16.411Z,80.80
2017-07-26T10:29:53.291Z,80.90
2017-07-26T10:32:33.318Z,81.10
2017-07-26T10:35:09.782Z,81.60
2017-07-26T10:37:46.785Z,81.70
2017-07-26T10:40:22.656Z,80.60
2017-07-26T10:42:58.748Z,80.00
2017-07-26T10:45:36.701Z,79.70
2017-07-26T10:48:20.847Z,81.10
2017-07-26T10:51:02.641Z,79.70
2017-07-26T10:53:38.563Z,80.40
2017-07-26T10:56:14.625Z,79.70
2017-07-26T10:58:54.864Z,78.70
2017-07-26T11:01:30.663Z,77.10
2017-07-26T11:04:11.150Z,79.00
2017-07-26T11:06:49.664Z,80.40
2017-07-26T11:09:28.185Z,80.70
2017-07-26T11:12:08.927Z,80.10
2017-07-26T11:14:44.255Z,80.10
2017-07-26T11:17:19.945Z,80.10
2017-07-26T11:19:56.588Z,79.90
2017-07-26T11:22:32.754Z,80.70
2017-07-26T11:25:10.404Z,81.10
2017-07-26T11:27:49.473Z,81.30
2017-07-26T11:30:25.681Z,81.60
2017-07-26T11:33:01.612Z,81.20
2017-07-26T11:35:38.579Z,80.60
2017-07-26T11:38:17.796Z,78.80
2017-07-26T11:41:01.581Z,80.30
2017-07-26T11:43:37.284Z,80.20
2017-07-26T11:46:14.832Z,81.00
2017-07-26T11:48:53.594Z,80.40
2017-07-26T11:51:30.842Z,78.90
2017-07-26T11:54:13.409Z,79.80
2017-07-26T11:56:54.185Z,78.50
2017-07-26T11:59:51.217Z,78.20
2017-07-26T12:02:30.093Z,77.50
2017-07-26T12:05:10.860Z,78.20
2017-07-26T12:07:51.047Z,77.20
2017-07-26T12:10:33.423Z,78.10
2017-07-26T12:13:15.446Z,76.70
2017-07-26T12:15:53.395Z,77.60
2017-07-26T12:18:35.372Z,77.60
2017-07-26T12:24:31.851Z,76.50
2017-07-26T12:27:08.706Z,77.60
2017-07-26T12:29:48.079Z,79.10
2017-07-26T12:32:29.240Z,79.00
2017-07-26T12:35:08.719Z,80.30
2017-07-26T12:37:45.713Z,79.00
2017-07-26T12:40:28.116Z,79.00
2017-07-26T12:43:05.536Z,78.90
2017-07-26T12:45:42.925Z,76.50
2017-07-26T12:48:21.421Z,76.70
2017-07-26T12:51:00.529Z,75.00
2017-07-26T12:53:40.472Z,75.00
2017-07-26T12:56:19.771Z,75.40
2017-07-26T12:58:58.382Z,75.40
2017-07-26T13:01:38.762Z,76.60
2017-07-26T13:04:17.364Z,75.40
2017-07-26T13:06:56.503Z,73.80
2017-07-26T13:09:35.651Z,73.70
2017-07-26T13:12:14.842Z,73.70
2017-07-26T13:14:50.945Z,73.60
2017-07-26T13:17:27.021Z,72.30
2017-07-26T13:20:03.479Z,74.30
2017-07-26T13:22:40.657Z,75.20
2017-07-26T13:25:20.969Z,75.50
2017-07-26T13:28:00.452Z,76.00
2017-07-26T13:30:35.340Z,76.00
2017-07-26T13:33:11.903Z,75.40
2017-07-26T13:35:49.331Z,74.70
2017-07-26T13:38:25.587Z,74.70
2017-07-26T13:41:00.837Z,74.40
2017-07-26T13:43:36.963Z,73.30
2017-07-26T13:46:14.045Z,74.60
2017-07-26T13:48:52.485Z,75.40
2017-07-26T13:51:28.411Z,75.80
2017-07-26T13:54:04.327Z,75.80
2017-07-26T13:56:40.528Z,75.90
2017-07-26T13:59:15.575Z,76.00
2017-07-26T14:01:53.273Z,74.00
2017-07-26T14:04:30.699Z,74.60
2017-07-26T14:07:05.882Z,75.20
2017-07-26T14:09:44.789Z,75.50
2017-07-26T14:12:20.497Z,73.90
2017-07-26T14:14:56.397Z,73.50
2017-07-26T14:17:36.077Z,73.90
2017-07-26T14:20:11.535Z,73.70
2017-07-26T14:22:47.100Z,75.00
2017-07-26T14:25:22.311Z,76.10
2017-07-26T14:27:58.075Z,76.80
2017-07-26T14:30:34.283Z,76.70
2017-07-26T14:33:11.733Z,77.10
2017-07-26T14:35:46.631Z,77.50
2017-07-26T14:38:22.961Z,77.20
2017-07-26T14:40:58.108Z,77.70
2017-07-26T14:43:34.396Z,77.60
2017-07-26T14:46:10.828Z,78.00
2017-07-26T14:48:50.766Z,78.70
2017-07-26T14:51:28.548Z,79.70
2017-07-26T14:54:04.722Z,80.50
2017-07-26T14:56:41.042Z,81.80
2017-07-26T14:59:17.037Z,80.70
2017-07-26T15:01:52.593Z,81.10
2017-07-26T15:04:28.394Z,80.80
2017-07-26T15:07:04.642Z,80.80
2017-07-26T15:09:41.052Z,80.00
2017-07-26T15:12:18.860Z,77.50
2017-07-26T15:14:57.854Z,77.70
2017-07-26T15:17:35.249Z,78.70
2017-07-26T15:20:23.884Z,78.70
2017-07-26T15:23:03.585Z,78.20
2017-07-26T15:25:47.878Z,79.00
2017-07-26T15:28:24.083Z,79.60
2017-07-26T15:34:03.396Z,78.50
2017-07-26T15:36:46.803Z,77.70
2017-07-26T15:42:37.034Z,78.90
2017-07-26T15:45:13.867Z,78.00
2017-07-26T15:47:57.575Z,77.60
2017-07-26T15:50:41.087Z,77.70
2017-07-26T15:53:19.217Z,78.00
2017-07-26T15:55:58.626Z,76.70
2017-07-26T15:58:37.756Z,76.10
2017-07-26T16:01:14.838Z,76.00
2017-07-26T16:03:54.785Z,77.70
2017-07-26T16:11:58.424Z,77.80
2017-07-26T16:14:39.015Z,77.90
2017-07-26T16:17:17.309Z,76.10
2017-07-26T16:20:06.470Z,76.10
2017-07-26T16:22:44.059Z,75.80
2017-07-26T16:25:24.105Z,74.60
2017-07-26T16:28:01.603Z,76.50
2017-07-26T16:30:37.672Z,76.50
2017-07-26T16:33:22.524Z,75.40
2017-07-26T16:35:59.711Z,75.00
2017-07-26T16:38:35.975Z,75.10
2017-07-26T16:41:21.599Z,74.80
2017-07-26T16:44:00.937Z,74.10
2017-07-26T16:46:39.005Z,73.00
2017-07-26T16:49:26.284Z,72.90
2017-07-26T16:52:06.985Z,73.80
2017-07-26T16:54:48.060Z,74.10
2017-07-26T16:57:24.428Z,72.60
2017-07-26T17:00:03.864Z,72.50
2017-07-26T17:02:41.255Z,72.70
2017-07-26T17:05:22.022Z,72.90
2017-07-26T17:07:58.695Z,73.30
2017-07-26T17:10:38.287Z,72.50
2017-07-26T17:13:14.908Z,72.30
2017-07-26T17:15:55.982Z,72.10
2017-07-26T17:18:35.011Z,71.40
2017-07-26T17:21:13.220Z,71.20
2017-07-26T17:23:49.994Z,71.20
2017-07-26T17:26:30.715Z,71.40
2017-07-26T17:29:06.228Z,72.00
2017-07-26T17:31:43.903Z,72.10
2017-07-26T17:34:23.551Z,71.40
2017-07-26T17:36:59.298Z,71.40
2017-07-26T17:39:39.657Z,70.70
2017-07-26T17:42:23.369Z,71.10
2017-07-26T17:45:00.259Z,70.80
2017-07-26T17:47:42.901Z,71.20
2017-07-26T17:50:26.418Z,70.90
2017-07-26T17:53:10.464Z,70.40
2017-07-26T17:55:52.669Z,70.70
2017-07-26T17:58:28.624Z,71.30
2017-07-26T18:01:08.870Z,71.00
2017-07-26T18:03:47.833Z,70.70
2017-07-26T18:06:27.239Z,71.20
2017-07-26T18:09:05.244Z,71.80
2017-07-26T18:11:40.997Z,71.90
2017-07-26T18:14:18.282Z,71.70
2017-07-26T18:19:50.288Z,70.50
2017-07-26T18:22:28.166Z,70.30
2017-07-26T18:25:04.838Z,70.60
2017-07-26T18:27:43.048Z,70.70
2017-07-26T18:30:21.870Z,71.50
2017-07-26T18:33:00.637Z,72.30
2017-07-26T18:35:45.171Z,71.90
2017-07-26T18:38:26.223Z,71.40
2017-07-26T18:41:05.457Z,71.00
2017-07-26T18:43:49.726Z,72.00
2017-07-26T18:46:28.019Z,72.30
2017-07-26T18:49:05.816Z,72.30
2017-07-26T18:51:43.043Z,72.20
2017-07-26T18:54:26.443Z,72.10
2017-07-26T18:57:05.872Z,72.20
2017-07-26T18:59:44.181Z,72.30
2017-07-26T19:02:22.285Z,72.70
2017-07-26T19:05:17.086Z,72.70
2017-07-26T19:07:59.291Z,72.90
2017-07-26T19:10:40.876Z,72.90
2017-07-26T19:13:21.949Z,73.00
2017-07-26T19:16:06.098Z,73.10
2017-07-26T19:18:52.114Z,73.20
2017-07-26T19:21:34.090Z,73.30
2017-07-26T19:27:23.531Z,73.40
2017-07-26T19:30:03.944Z,73.40
2017-07-26T19:32:40.675Z,73.40
2017-07-26T19:35:21.175Z,73.60
2017-07-26T19:38:00.113Z,73.40
2017-07-26T19:40:48.359Z,73.60
2017-07-26T19:43:24.701Z,73.40
2017-07-26T19:46:01.906Z,73.30
2017-07-26T19:48:41.024Z,73.20
2017-07-26T19:51:20.463Z,73.20
2017-07-26T19:53:57.710Z,73.30
2017-07-26T19:56:40.942Z,73.30
2017-07-26T19:59:19.594Z,73.30
2017-07-26T20:02:00.704Z,73.30
2017-07-26T20:04:43.246Z,73.30
2017-07-26T20:07:32.755Z,73.40
2017-07-26T20:10:15.320Z,74.30
2017-07-26T20:16:32.118Z,73.50
2017-07-26T20:22:27.815Z,73.40
2017-07-26T20:34:32.874Z,73.40
2017-07-26T20:37:16.989Z,74.10
2017-07-26T20:43:10.868Z,74.20
2017-07-26T20:51:51.341Z,73.80
2017-07-26T20:54:29.286Z,73.60
2017-07-26T20:57:07.962Z,73.60
2017-07-26T20:59:46.002Z,73.60
2017-07-26T21:02:30.517Z,73.60
2017-07-26T21:08:16.603Z,73.60
2017-07-26T21:11:11.246Z,73.90
2017-07-26T21:17:07.618Z,74.10
2017-07-26T21:19:45.316Z,73.90
2017-07-26T21:22:25.473Z,74.00
2017-07-26T21:25:03.025Z,73.70
2017-07-26T21:27:40.696Z,73.60
2017-07-26T21:30:18.601Z,73.60
2017-07-26T21:32:56.358Z,73.70
2017-07-26T21:35:40.917Z,74.20
2017-07-26T21:38:23.538Z,73.80
2017-07-26T21:41:04.725Z,73.80
2017-07-26T21:43:45.605Z,73.50
2017-07-26T21:46:27.638Z,73.40
2017-07-26T21:49:13.224Z,73.20
2017-07-26T21:51:53.415Z,73.20
2017-07-26T21:54:29.685Z,73.10
2017-07-26T21:57:15.954Z,73.40
2017-07-26T21:59:53.056Z,73.50
2017-07-26T22:02:32.758Z,73.50
2017-07-26T22:05:08.347Z,73.70
2017-07-26T22:07:53.732Z,73.30
2017-07-26T22:10:30.677Z,73.00
2017-07-26T22:13:11.096Z,72.90
2017-07-26T22:15:48.276Z,73.00
2017-07-26T22:18:28.366Z,72.90
2017-07-26T22:21:10.604Z,72.90
2017-07-26T22:23:47.630Z,72.70
2017-07-26T22:26:26.360Z,72.70
2017-07-26T22:29:05.025Z,72.60
2017-07-26T22:31:46.564Z,72.60
2017-07-26T22:34:32.632Z,72.60
2017-07-26T22:37:13.011Z,72.60
2017-07-26T22:39:50.235Z,72.70
2017-07-26T22:42:27.618Z,72.60
2017-07-26T22:45:09.337Z,72.60
2017-07-26T22:47:46.401Z,72.80
2017-07-26T22:50:30.595Z,72.90
2017-07-26T22:53:14.957Z,73.50
2017-07-26T22:55:54.251Z,74.00
2017-07-26T22:58:36.108Z,74.00
2017-07-26T23:01:18.965Z,74.00
2017-07-26T23:03:54.917Z,73.90
2017-07-26T23:09:19.944Z,73.30
2017-07-26T23:12:04.329Z,72.90
2017-07-26T23:14:48.934Z,72.60
2017-07-26T23:17:33.607Z,72.30
2017-07-26T23:20:14.380Z,72.10
2017-07-26T23:26:03.455Z,72.00
2017-07-26T23:28:55.349Z,72.10
2017-07-26T23:31:34.417Z,72.10
2017-07-26T23:34:12.466Z,72.10
2017-07-26T23:36:50.433Z,72.50
2017-07-26T23:39:29.935Z,72.90
2017-07-26T23:42:08.181Z,73.30
2017-07-26T23:44:51.713Z,73.20
2017-07-26T23:47:28.021Z,73.30
2017-07-26T23:50:12.425Z,73.20
2017-07-26T23:52:52.942Z,73.20
2017-07-26T23:55:34.886Z,73.40
2017-07-26T23:58:16.871Z,73.40
